sensor_id;sensor_type;location;lat;lon;timestamp;P1;durP1;ratioP1;P2;durP2;ratioP2
11111;SDS011;5609;49.466;8.468;2023-11-18T00:01:12;6.73;;;5.43;;
11111;SDS011;5609;49.466;8.468;2023-11-18T00:03:39;8.47;;;6.20;;
11111;SDS011;5609;49.466;8.468;2023-11-18T00:06:08;7.50;;;6.00;;
11111;SDS011;5609;49.466;8.468;2023-11-18T00:08:35;8.70;;;6.30;;
11111;SDS011;5609;49.466;8.468;2023-11-18T00:11:03;7.80;;;5.93;;
11111;SDS011;5609;49.466;8.468;2023-11-18T00:13:30;7.40;;;5.83;;
11111;SDS011;5609;49.466;8.468;2023-11-18T00:15:59;6.73;;;5.30;;
11111;SDS011;5609;49.466;8.468;2023-11-18T00:18:26;6.60;;;6.00;;
11111;SDS011;5609;49.466;8.468;2023-11-18T00:20:53;7.87;;;6.37;;
11111;SDS011;5609;49.466;8.468;2023-11-18T00:23:22;7.20;;;6.00;;
11111;SDS011;5609;49.466;8.468;2023-11-18T00:25:51;6.47;;;5.70;;
11111;SDS011;5609;49.466;8.468;2023-11-18T00:28:18;8.73;;;5.83;;
11111;SDS011;5609;49.466;8.468;2023-11-18T00:30:46;7.70;;;5.77;;
11111;SDS011;5609;49.466;8.468;2023-11-18T00:33:14;6.07;;;5.47;;
11111;SDS011;5609;49.466;8.468;2023-11-18T00:35:41;11.07;;;5.60;;
11111;SDS011;5609;49.466;8.468;2023-11-18T00:38:10;8.83;;;5.47;;
11111;SDS011;5609;49.466;8.468;2023-11-18T00:40:37;7.27;;;5.63;;
11111;SDS011;5609;49.466;8.468;2023-11-18T00:43:05;7.67;;;6.27;;
11111;SDS011;5609;49.466;8.468;2023-11-18T00:45:34;7.90;;;6.03;;
11111;SDS011;5609;49.466;8.468;2023-11-18T00:48:01;7.23;;;6.07;;
11111;SDS011;5609;49.466;8.468;2023-11-18T00:50:31;6.97;;;6.07;;
11111;SDS011;5609;49.466;8.468;2023-11-18T00:52:59;7.00;;;6.33;;
11111;SDS011;5609;49.466;8.468;2023-11-18T00:55:27;8.73;;;5.90;;
11111;SDS011;5609;49.466;8.468;2023-11-18T00:57:57;7.93;;;6.60;;
11111;SDS011;5609;49.466;8.468;2023-11-18T01:00:24;7.50;;;6.53;;
11111;SDS011;5609;49.466;8.468;2023-11-18T01:02:52;7.50;;;6.07;;
11111;SDS011;5609;49.466;8.468;2023-11-18T01:05:21;7.47;;;6.57;;
11111;SDS011;5609;49.466;8.468;2023-11-18T01:07:50;10.30;;;6.70;;
11111;SDS011;5609;49.466;8.468;2023-11-18T01:10:19;12.77;;;9.23;;
11111;SDS011;5609;49.466;8.468;2023-11-18T01:12:47;14.23;;;9.77;;
11111;SDS011;5609;49.466;8.468;2023-11-18T01:15:14;12.17;;;9.30;;
11111;SDS011;5609;49.466;8.468;2023-11-18T01:17:41;9.40;;;6.27;;
11111;SDS011;5609;49.466;8.468;2023-11-18T01:20:09;7.57;;;6.40;;
11111;SDS011;5609;49.466;8.468;2023-11-18T01:22:38;6.30;;;5.70;;
11111;SDS011;5609;49.466;8.468;2023-11-18T01:25:09;6.47;;;5.80;;
11111;SDS011;5609;49.466;8.468;2023-11-18T01:27:36;6.90;;;6.27;;
11111;SDS011;5609;49.466;8.468;2023-11-18T01:30:05;8.93;;;6.00;;
11111;SDS011;5609;49.466;8.468;2023-11-18T01:32:32;7.83;;;6.17;;
11111;SDS011;5609;49.466;8.468;2023-11-18T01:34:59;8.17;;;6.60;;
11111;SDS011;5609;49.466;8.468;2023-11-18T01:37:27;8.27;;;6.10;;
11111;SDS011;5609;49.466;8.468;2023-11-18T01:39:54;8.33;;;6.40;;
11111;SDS011;5609;49.466;8.468;2023-11-18T01:42:23;9.13;;;5.90;;
11111;SDS011;5609;49.466;8.468;2023-11-18T01:44:51;6.70;;;5.90;;
11111;SDS011;5609;49.466;8.468;2023-11-18T01:47:24;8.10;;;5.87;;
11111;SDS011;5609;49.466;8.468;2023-11-18T01:49:51;7.13;;;6.00;;
11111;SDS011;5609;49.466;8.468;2023-11-18T01:52:21;6.27;;;5.50;;
11111;SDS011;5609;49.466;8.468;2023-11-18T01:54:48;6.53;;;5.80;;
11111;SDS011;5609;49.466;8.468;2023-11-18T01:57:16;6.73;;;5.90;;
11111;SDS011;5609;49.466;8.468;2023-11-18T01:59:44;7.07;;;5.70;;
11111;SDS011;5609;49.466;8.468;2023-11-18T02:02:13;6.30;;;5.70;;
11111;SDS011;5609;49.466;8.468;2023-11-18T02:04:40;7.83;;;6.00;;
11111;SDS011;5609;49.466;8.468;2023-11-18T02:07:10;6.30;;;5.70;;
11111;SDS011;5609;49.466;8.468;2023-11-18T02:09:40;5.93;;;5.43;;
11111;SDS011;5609;49.466;8.468;2023-11-18T02:12:10;6.30;;;5.70;;
11111;SDS011;5609;49.466;8.468;2023-11-18T02:14:45;6.70;;;5.97;;
11111;SDS011;5609;49.466;8.468;2023-11-18T02:17:14;6.40;;;5.80;;
11111;SDS011;5609;49.466;8.468;2023-11-18T02:19:41;7.37;;;5.83;;
11111;SDS011;5609;49.466;8.468;2023-11-18T02:22:09;7.00;;;6.30;;
11111;SDS011;5609;49.466;8.468;2023-11-18T02:24:37;6.10;;;5.50;;
11111;SDS011;5609;49.466;8.468;2023-11-18T02:27:07;7.53;;;5.60;;
11111;SDS011;5609;49.466;8.468;2023-11-18T02:29:37;5.80;;;5.30;;
11111;SDS011;5609;49.466;8.468;2023-11-18T02:32:07;8.63;;;6.07;;
11111;SDS011;5609;49.466;8.468;2023-11-18T02:34:37;8.63;;;6.00;;
11111;SDS011;5609;49.466;8.468;2023-11-18T02:37:05;7.83;;;5.57;;
11111;SDS011;5609;49.466;8.468;2023-11-18T02:39:34;8.23;;;5.80;;
11111;SDS011;5609;49.466;8.468;2023-11-18T02:42:04;7.40;;;6.10;;
11111;SDS011;5609;49.466;8.468;2023-11-18T02:44:35;7.60;;;6.13;;
11111;SDS011;5609;49.466;8.468;2023-11-18T02:47:03;8.37;;;5.80;;
11111;SDS011;5609;49.466;8.468;2023-11-18T02:49:31;8.57;;;5.40;;
11111;SDS011;5609;49.466;8.468;2023-11-18T02:51:58;5.83;;;5.23;;
11111;SDS011;5609;49.466;8.468;2023-11-18T02:54:25;6.67;;;5.77;;
11111;SDS011;5609;49.466;8.468;2023-11-18T02:56:53;7.47;;;5.60;;
11111;SDS011;5609;49.466;8.468;2023-11-18T02:59:20;9.03;;;5.87;;
11111;SDS011;5609;49.466;8.468;2023-11-18T03:01:49;6.07;;;5.43;;
11111;SDS011;5609;49.466;8.468;2023-11-18T03:04:19;6.80;;;6.10;;
11111;SDS011;5609;49.466;8.468;2023-11-18T03:06:48;6.70;;;6.00;;
11111;SDS011;5609;49.466;8.468;2023-11-18T03:09:16;10.70;;;6.13;;
11111;SDS011;5609;49.466;8.468;2023-11-18T03:11:43;6.87;;;6.13;;
11111;SDS011;5609;49.466;8.468;2023-11-18T03:14:10;7.13;;;6.33;;
11111;SDS011;5609;49.466;8.468;2023-11-18T03:16:37;6.63;;;6.03;;
11111;SDS011;5609;49.466;8.468;2023-11-18T03:19:06;9.23;;;6.93;;
11111;SDS011;5609;49.466;8.468;2023-11-18T03:21:33;6.63;;;5.73;;
11111;SDS011;5609;49.466;8.468;2023-11-18T03:24:01;9.40;;;6.10;;
11111;SDS011;5609;49.466;8.468;2023-11-18T03:26:28;7.53;;;6.30;;
11111;SDS011;5609;49.466;8.468;2023-11-18T03:28:56;9.20;;;6.40;;
11111;SDS011;5609;49.466;8.468;2023-11-18T03:31:23;8.03;;;6.17;;
11111;SDS011;5609;49.466;8.468;2023-11-18T03:33:51;8.47;;;7.67;;
11111;SDS011;5609;49.466;8.468;2023-11-18T03:36:19;7.93;;;7.13;;
11111;SDS011;5609;49.466;8.468;2023-11-18T03:38:46;6.97;;;6.33;;
11111;SDS011;5609;49.466;8.468;2023-11-18T03:41:14;7.73;;;6.43;;
11111;SDS011;5609;49.466;8.468;2023-11-18T03:43:42;7.27;;;6.40;;
11111;SDS011;5609;49.466;8.468;2023-11-18T03:46:08;6.63;;;5.97;;
11111;SDS011;5609;49.466;8.468;2023-11-18T03:48:35;7.97;;;5.87;;
11111;SDS011;5609;49.466;8.468;2023-11-18T03:51:03;6.83;;;5.80;;
11111;SDS011;5609;49.466;8.468;2023-11-18T03:53:31;6.40;;;5.80;;
11111;SDS011;5609;49.466;8.468;2023-11-18T03:55:59;7.17;;;5.30;;
11111;SDS011;5609;49.466;8.468;2023-11-18T03:58:27;6.87;;;6.07;;
11111;SDS011;5609;49.466;8.468;2023-11-18T04:00:54;7.70;;;5.90;;
11111;SDS011;5609;49.466;8.468;2023-11-18T04:03:21;9.20;;;5.90;;
11111;SDS011;5609;49.466;8.468;2023-11-18T04:05:48;7.37;;;6.30;;
11111;SDS011;5609;49.466;8.468;2023-11-18T04:08:15;6.43;;;5.83;;
11111;SDS011;5609;49.466;8.468;2023-11-18T04:10:43;6.43;;;5.83;;
11111;SDS011;5609;49.466;8.468;2023-11-18T04:13:10;7.07;;;5.83;;
11111;SDS011;5609;49.466;8.468;2023-11-18T04:15:37;8.00;;;6.37;;
11111;SDS011;5609;49.466;8.468;2023-11-18T04:18:04;8.63;;;6.47;;
11111;SDS011;5609;49.466;8.468;2023-11-18T04:20:32;6.90;;;6.30;;
11111;SDS011;5609;49.466;8.468;2023-11-18T04:22:59;6.87;;;6.33;;
11111;SDS011;5609;49.466;8.468;2023-11-18T04:25:26;7.33;;;6.63;;
11111;SDS011;5609;49.466;8.468;2023-11-18T04:27:54;13.10;;;6.50;;
11111;SDS011;5609;49.466;8.468;2023-11-18T04:30:21;7.67;;;6.90;;
11111;SDS011;5609;49.466;8.468;2023-11-18T04:32:48;7.57;;;6.87;;
11111;SDS011;5609;49.466;8.468;2023-11-18T04:35:17;7.00;;;6.40;;
11111;SDS011;5609;49.466;8.468;2023-11-18T04:37:47;7.03;;;6.33;;
11111;SDS011;5609;49.466;8.468;2023-11-18T04:40:14;7.90;;;6.67;;
11111;SDS011;5609;49.466;8.468;2023-11-18T04:42:41;7.50;;;6.73;;
11111;SDS011;5609;49.466;8.468;2023-11-18T04:45:10;7.10;;;6.43;;
11111;SDS011;5609;49.466;8.468;2023-11-18T04:47:39;9.43;;;6.40;;
11111;SDS011;5609;49.466;8.468;2023-11-18T04:50:08;6.87;;;6.17;;
11111;SDS011;5609;49.466;8.468;2023-11-18T04:52:35;7.87;;;6.63;;
11111;SDS011;5609;49.466;8.468;2023-11-18T04:55:03;7.27;;;6.57;;
11111;SDS011;5609;49.466;8.468;2023-11-18T04:57:31;7.33;;;6.63;;
11111;SDS011;5609;49.466;8.468;2023-11-18T04:59:58;7.03;;;6.40;;
11111;SDS011;5609;49.466;8.468;2023-11-18T05:02:36;8.70;;;7.00;;
11111;SDS011;5609;49.466;8.468;2023-11-18T05:05:03;9.93;;;6.90;;
11111;SDS011;5609;49.466;8.468;2023-11-18T05:07:31;7.00;;;6.30;;
11111;SDS011;5609;49.466;8.468;2023-11-18T05:09:59;9.53;;;7.43;;
11111;SDS011;5609;49.466;8.468;2023-11-18T05:12:26;8.03;;;7.33;;
11111;SDS011;5609;49.466;8.468;2023-11-18T05:14:54;8.77;;;6.77;;
11111;SDS011;5609;49.466;8.468;2023-11-18T05:17:21;7.40;;;6.70;;
11111;SDS011;5609;49.466;8.468;2023-11-18T05:19:50;7.03;;;6.33;;
11111;SDS011;5609;49.466;8.468;2023-11-18T05:22:16;8.20;;;7.00;;
11111;SDS011;5609;49.466;8.468;2023-11-18T05:24:43;7.47;;;6.67;;
11111;SDS011;5609;49.466;8.468;2023-11-18T05:27:10;7.33;;;6.63;;
11111;SDS011;5609;49.466;8.468;2023-11-18T05:29:37;7.57;;;6.73;;
11111;SDS011;5609;49.466;8.468;2023-11-18T05:32:06;7.20;;;6.60;;
11111;SDS011;5609;49.466;8.468;2023-11-18T05:34:33;7.90;;;7.10;;
11111;SDS011;5609;49.466;8.468;2023-11-18T05:37:02;8.50;;;6.70;;
11111;SDS011;5609;49.466;8.468;2023-11-18T05:39:29;8.60;;;7.17;;
11111;SDS011;5609;49.466;8.468;2023-11-18T05:41:56;8.17;;;6.63;;
11111;SDS011;5609;49.466;8.468;2023-11-18T05:44:23;6.60;;;6.00;;
11111;SDS011;5609;49.466;8.468;2023-11-18T05:46:55;7.33;;;6.63;;
11111;SDS011;5609;49.466;8.468;2023-11-18T05:49:22;7.67;;;6.97;;
11111;SDS011;5609;49.466;8.468;2023-11-18T05:51:49;8.40;;;7.60;;
11111;SDS011;5609;49.466;8.468;2023-11-18T05:54:19;8.80;;;7.03;;
11111;SDS011;5609;49.466;8.468;2023-11-18T05:56:46;8.13;;;7.33;;
11111;SDS011;5609;49.466;8.468;2023-11-18T05:59:13;8.23;;;7.53;;
11111;SDS011;5609;49.466;8.468;2023-11-18T06:01:40;7.77;;;7.07;;
11111;SDS011;5609;49.466;8.468;2023-11-18T06:04:07;10.10;;;9.20;;
11111;SDS011;5609;49.466;8.468;2023-11-18T06:06:35;8.77;;;7.83;;
11111;SDS011;5609;49.466;8.468;2023-11-18T06:09:03;9.13;;;8.10;;
11111;SDS011;5609;49.466;8.468;2023-11-18T06:11:35;8.80;;;7.90;;
11111;SDS011;5609;49.466;8.468;2023-11-18T06:14:06;9.77;;;8.80;;
11111;SDS011;5609;49.466;8.468;2023-11-18T06:16:34;12.70;;;8.63;;
11111;SDS011;5609;49.466;8.468;2023-11-18T06:19:02;8.63;;;7.73;;
11111;SDS011;5609;49.466;8.468;2023-11-18T06:21:30;12.57;;;8.13;;
11111;SDS011;5609;49.466;8.468;2023-11-18T06:23:57;9.27;;;8.37;;
11111;SDS011;5609;49.466;8.468;2023-11-18T06:26:25;11.80;;;8.10;;
11111;SDS011;5609;49.466;8.468;2023-11-18T06:28:54;9.00;;;8.03;;
11111;SDS011;5609;49.466;8.468;2023-11-18T06:31:22;10.53;;;8.07;;
11111;SDS011;5609;49.466;8.468;2023-11-18T06:33:50;9.43;;;8.50;;
11111;SDS011;5609;49.466;8.468;2023-11-18T06:36:17;10.37;;;9.27;;
11111;SDS011;5609;49.466;8.468;2023-11-18T06:38:45;9.67;;;8.77;;
11111;SDS011;5609;49.466;8.468;2023-11-18T06:41:12;9.70;;;8.77;;
11111;SDS011;5609;49.466;8.468;2023-11-18T06:43:41;10.00;;;9.00;;
11111;SDS011;5609;49.466;8.468;2023-11-18T06:46:18;10.13;;;9.13;;
11111;SDS011;5609;49.466;8.468;2023-11-18T06:48:47;12.40;;;11.13;;
11111;SDS011;5609;49.466;8.468;2023-11-18T06:51:15;9.43;;;8.50;;
11111;SDS011;5609;49.466;8.468;2023-11-18T06:53:42;10.53;;;9.47;;
11111;SDS011;5609;49.466;8.468;2023-11-18T06:56:10;12.50;;;8.83;;
11111;SDS011;5609;49.466;8.468;2023-11-18T06:58:38;11.50;;;9.83;;
11111;SDS011;5609;49.466;8.468;2023-11-18T07:01:05;11.57;;;9.97;;
11111;SDS011;5609;49.466;8.468;2023-11-18T07:03:34;11.03;;;9.93;;
11111;SDS011;5609;49.466;8.468;2023-11-18T07:06:01;10.40;;;9.23;;
11111;SDS011;5609;49.466;8.468;2023-11-18T07:08:30;11.93;;;10.43;;
11111;SDS011;5609;49.466;8.468;2023-11-18T07:10:57;10.20;;;9.20;;
11111;SDS011;5609;49.466;8.468;2023-11-18T07:13:26;10.37;;;9.27;;
11111;SDS011;5609;49.466;8.468;2023-11-18T07:15:53;12.00;;;10.70;;
11111;SDS011;5609;49.466;8.468;2023-11-18T07:18:22;11.37;;;10.20;;
11111;SDS011;5609;49.466;8.468;2023-11-18T07:20:51;11.80;;;8.90;;
11111;SDS011;5609;49.466;8.468;2023-11-18T07:23:18;9.60;;;8.60;;
11111;SDS011;5609;49.466;8.468;2023-11-18T07:25:45;10.80;;;9.27;;
11111;SDS011;5609;49.466;8.468;2023-11-18T07:28:13;10.80;;;9.67;;
11111;SDS011;5609;49.466;8.468;2023-11-18T07:30:42;10.17;;;8.83;;
11111;SDS011;5609;49.466;8.468;2023-11-18T07:33:12;11.47;;;10.37;;
11111;SDS011;5609;49.466;8.468;2023-11-18T07:35:39;10.57;;;9.50;;
11111;SDS011;5609;49.466;8.468;2023-11-18T07:38:08;13.37;;;10.57;;
11111;SDS011;5609;49.466;8.468;2023-11-18T07:40:35;13.03;;;11.73;;
11111;SDS011;5609;49.466;8.468;2023-11-18T07:43:07;13.37;;;11.97;;
11111;SDS011;5609;49.466;8.468;2023-11-18T07:45:34;11.80;;;10.60;;
11111;SDS011;5609;49.466;8.468;2023-11-18T07:48:03;11.80;;;10.60;;
11111;SDS011;5609;49.466;8.468;2023-11-18T07:50:31;11.17;;;10.17;;
11111;SDS011;5609;49.466;8.468;2023-11-18T07:52:58;11.40;;;10.33;;
11111;SDS011;5609;49.466;8.468;2023-11-18T07:55:27;11.70;;;10.50;;
11111;SDS011;5609;49.466;8.468;2023-11-18T07:57:54;11.53;;;10.37;;
11111;SDS011;5609;49.466;8.468;2023-11-18T08:00:21;11.50;;;10.40;;
11111;SDS011;5609;49.466;8.468;2023-11-18T08:02:49;11.47;;;9.77;;
11111;SDS011;5609;49.466;8.468;2023-11-18T08:05:19;11.43;;;10.20;;
11111;SDS011;5609;49.466;8.468;2023-11-18T08:07:48;11.43;;;10.30;;
11111;SDS011;5609;49.466;8.468;2023-11-18T08:10:16;11.63;;;10.53;;
11111;SDS011;5609;49.466;8.468;2023-11-18T08:12:45;11.50;;;10.30;;
11111;SDS011;5609;49.466;8.468;2023-11-18T08:15:12;11.90;;;10.43;;
11111;SDS011;5609;49.466;8.468;2023-11-18T08:17:40;12.07;;;10.87;;
11111;SDS011;5609;49.466;8.468;2023-11-18T08:20:07;11.20;;;10.10;;
11111;SDS011;5609;49.466;8.468;2023-11-18T08:22:39;10.73;;;9.70;;
11111;SDS011;5609;49.466;8.468;2023-11-18T08:25:06;11.57;;;9.73;;
11111;SDS011;5609;49.466;8.468;2023-11-18T08:27:33;10.77;;;9.40;;
11111;SDS011;5609;49.466;8.468;2023-11-18T08:30:02;11.07;;;9.60;;
11111;SDS011;5609;49.466;8.468;2023-11-18T08:32:31;10.93;;;8.70;;
11111;SDS011;5609;49.466;8.468;2023-11-18T08:34:58;9.80;;;8.90;;
11111;SDS011;5609;49.466;8.468;2023-11-18T08:37:25;11.83;;;9.40;;
11111;SDS011;5609;49.466;8.468;2023-11-18T08:39:52;10.47;;;9.47;;
11111;SDS011;5609;49.466;8.468;2023-11-18T08:42:19;10.83;;;8.70;;
11111;SDS011;5609;49.466;8.468;2023-11-18T08:44:47;10.17;;;8.83;;
11111;SDS011;5609;49.466;8.468;2023-11-18T08:47:15;10.73;;;9.43;;
11111;SDS011;5609;49.466;8.468;2023-11-18T08:49:44;11.63;;;9.30;;
11111;SDS011;5609;49.466;8.468;2023-11-18T08:52:11;10.17;;;8.57;;
11111;SDS011;5609;49.466;8.468;2023-11-18T08:54:38;12.87;;;9.53;;
11111;SDS011;5609;49.466;8.468;2023-11-18T08:57:26;10.23;;;8.40;;
11111;SDS011;5609;49.466;8.468;2023-11-18T08:59:59;9.33;;;8.43;;
11111;SDS011;5609;49.466;8.468;2023-11-18T09:02:34;8.97;;;7.90;;
11111;SDS011;5609;49.466;8.468;2023-11-18T09:05:02;9.90;;;8.83;;
11111;SDS011;5609;49.466;8.468;2023-11-18T09:07:37;9.13;;;8.23;;
11111;SDS011;5609;49.466;8.468;2023-11-18T09:10:05;9.53;;;8.20;;
11111;SDS011;5609;49.466;8.468;2023-11-18T09:12:33;8.60;;;7.70;;
11111;SDS011;5609;49.466;8.468;2023-11-18T09:15:00;11.70;;;9.83;;
11111;SDS011;5609;49.466;8.468;2023-11-18T09:17:28;10.53;;;9.13;;
11111;SDS011;5609;49.466;8.468;2023-11-18T09:19:57;10.70;;;8.17;;
11111;SDS011;5609;49.466;8.468;2023-11-18T09:22:24;10.67;;;9.40;;
11111;SDS011;5609;49.466;8.468;2023-11-18T09:24:51;8.73;;;7.80;;
11111;SDS011;5609;49.466;8.468;2023-11-18T09:27:18;33.57;;;10.80;;
11111;SDS011;5609;49.466;8.468;2023-11-18T09:29:45;11.97;;;7.70;;
11111;SDS011;5609;49.466;8.468;2023-11-18T09:32:12;9.60;;;8.37;;
11111;SDS011;5609;49.466;8.468;2023-11-18T09:34:40;9.37;;;6.87;;
11111;SDS011;5609;49.466;8.468;2023-11-18T09:37:08;9.13;;;6.90;;
11111;SDS011;5609;49.466;8.468;2023-11-18T09:39:35;7.50;;;6.80;;
11111;SDS011;5609;49.466;8.468;2023-11-18T09:42:04;8.30;;;7.20;;
11111;SDS011;5609;49.466;8.468;2023-11-18T09:44:34;7.83;;;6.80;;
11111;SDS011;5609;49.466;8.468;2023-11-18T09:47:03;7.97;;;6.70;;
11111;SDS011;5609;49.466;8.468;2023-11-18T09:49:34;8.00;;;6.50;;
11111;SDS011;5609;49.466;8.468;2023-11-18T09:52:05;8.47;;;6.57;;
11111;SDS011;5609;49.466;8.468;2023-11-18T09:54:36;7.43;;;6.67;;
11111;SDS011;5609;49.466;8.468;2023-11-18T09:57:07;8.70;;;7.13;;
11111;SDS011;5609;49.466;8.468;2023-11-18T09:59:39;9.80;;;7.13;;
11111;SDS011;5609;49.466;8.468;2023-11-18T10:02:10;7.67;;;6.73;;
11111;SDS011;5609;49.466;8.468;2023-11-18T10:04:37;9.67;;;7.20;;
11111;SDS011;5609;49.466;8.468;2023-11-18T10:07:04;8.20;;;6.77;;
11111;SDS011;5609;49.466;8.468;2023-11-18T10:09:32;8.80;;;7.00;;
11111;SDS011;5609;49.466;8.468;2023-11-18T10:12:04;8.30;;;6.83;;
11111;SDS011;5609;49.466;8.468;2023-11-18T10:14:31;7.80;;;6.77;;
11111;SDS011;5609;49.466;8.468;2023-11-18T10:16:58;7.80;;;7.00;;
11111;SDS011;5609;49.466;8.468;2023-11-18T10:22:15;8.90;;;7.20;;
11111;SDS011;5609;49.466;8.468;2023-11-18T10:24:47;7.43;;;6.73;;
11111;SDS011;5609;49.466;8.468;2023-11-18T10:27:16;7.50;;;6.67;;
11111;SDS011;5609;49.466;8.468;2023-11-18T10:29:44;8.13;;;7.07;;
11111;SDS011;5609;49.466;8.468;2023-11-18T10:32:11;8.50;;;7.20;;
11111;SDS011;5609;49.466;8.468;2023-11-18T10:34:44;7.40;;;6.60;;
11111;SDS011;5609;49.466;8.468;2023-11-18T10:37:12;8.60;;;7.63;;
11111;SDS011;5609;49.466;8.468;2023-11-18T10:39:38;8.07;;;7.27;;
11111;SDS011;5609;49.466;8.468;2023-11-18T10:42:05;7.37;;;6.40;;
11111;SDS011;5609;49.466;8.468;2023-11-18T10:44:34;7.50;;;6.67;;
11111;SDS011;5609;49.466;8.468;2023-11-18T10:47:01;9.30;;;7.60;;
11111;SDS011;5609;49.466;8.468;2023-11-18T10:49:28;7.33;;;6.63;;
11111;SDS011;5609;49.466;8.468;2023-11-18T10:52:01;7.23;;;6.53;;
11111;SDS011;5609;49.466;8.468;2023-11-18T10:54:32;7.37;;;6.40;;
11111;SDS011;5609;49.466;8.468;2023-11-18T10:57:00;7.53;;;6.30;;
11111;SDS011;5609;49.466;8.468;2023-11-18T10:59:32;6.97;;;6.17;;
11111;SDS011;5609;49.466;8.468;2023-11-18T11:02:00;6.77;;;6.13;;
11111;SDS011;5609;49.466;8.468;2023-11-18T11:04:44;6.60;;;5.90;;
11111;SDS011;5609;49.466;8.468;2023-11-18T11:07:14;9.47;;;6.40;;
11111;SDS011;5609;49.466;8.468;2023-11-18T11:09:44;6.77;;;5.90;;
11111;SDS011;5609;49.466;8.468;2023-11-18T11:12:11;7.77;;;5.97;;
11111;SDS011;5609;49.466;8.468;2023-11-18T11:14:42;7.53;;;5.80;;
11111;SDS011;5609;49.466;8.468;2023-11-18T11:17:16;6.47;;;5.13;;
11111;SDS011;5609;49.466;8.468;2023-11-18T11:19:54;6.13;;;5.50;;
11111;SDS011;5609;49.466;8.468;2023-11-18T11:22:22;6.97;;;5.37;;
11111;SDS011;5609;49.466;8.468;2023-11-18T11:24:54;7.00;;;5.67;;
11111;SDS011;5609;49.466;8.468;2023-11-18T11:27:27;7.27;;;5.17;;
11111;SDS011;5609;49.466;8.468;2023-11-18T11:30:02;6.27;;;5.67;;
11111;SDS011;5609;49.466;8.468;2023-11-18T11:32:38;7.20;;;6.17;;
11111;SDS011;5609;49.466;8.468;2023-11-18T11:35:07;7.10;;;5.90;;
11111;SDS011;5609;49.466;8.468;2023-11-18T11:37:43;7.13;;;6.10;;
11111;SDS011;5609;49.466;8.468;2023-11-18T11:40:12;6.70;;;6.00;;
11111;SDS011;5609;49.466;8.468;2023-11-18T11:42:47;7.30;;;5.60;;
11111;SDS011;5609;49.466;8.468;2023-11-18T11:45:16;6.97;;;6.27;;
11111;SDS011;5609;49.466;8.468;2023-11-18T11:47:48;8.23;;;6.00;;
11111;SDS011;5609;49.466;8.468;2023-11-18T11:50:18;7.30;;;5.97;;
11111;SDS011;5609;49.466;8.468;2023-11-18T11:52:48;7.03;;;5.63;;
11111;SDS011;5609;49.466;8.468;2023-11-18T11:55:21;7.23;;;6.07;;
11111;SDS011;5609;49.466;8.468;2023-11-18T11:57:50;9.17;;;5.80;;
11111;SDS011;5609;49.466;8.468;2023-11-18T12:00:19;6.93;;;5.20;;
11111;SDS011;5609;49.466;8.468;2023-11-18T12:02:52;7.10;;;5.70;;
11111;SDS011;5609;49.466;8.468;2023-11-18T12:05:20;5.77;;;5.10;;
11111;SDS011;5609;49.466;8.468;2023-11-18T12:07:52;5.50;;;5.00;;
11111;SDS011;5609;49.466;8.468;2023-11-18T12:10:20;6.80;;;5.20;;
11111;SDS011;5609;49.466;8.468;2023-11-18T12:12:47;7.77;;;5.10;;
11111;SDS011;5609;49.466;8.468;2023-11-18T12:15:15;6.63;;;4.67;;
11111;SDS011;5609;49.466;8.468;2023-11-18T12:18:12;5.80;;;4.80;;
11111;SDS011;5609;49.466;8.468;2023-11-18T12:20:42;5.30;;;4.80;;
11111;SDS011;5609;49.466;8.468;2023-11-18T12:23:12;6.20;;;4.93;;
11111;SDS011;5609;49.466;8.468;2023-11-18T12:25:40;5.70;;;4.60;;
11111;SDS011;5609;49.466;8.468;2023-11-18T12:28:09;6.50;;;4.67;;
11111;SDS011;5609;49.466;8.468;2023-11-18T12:30:40;7.27;;;4.80;;
11111;SDS011;5609;49.466;8.468;2023-11-18T12:33:18;6.23;;;4.50;;
11111;SDS011;5609;49.466;8.468;2023-11-18T12:38:40;5.53;;;4.77;;
11111;SDS011;5609;49.466;8.468;2023-11-18T12:41:17;5.30;;;4.30;;
11111;SDS011;5609;49.466;8.468;2023-11-18T12:43:55;4.93;;;4.07;;
11111;SDS011;5609;49.466;8.468;2023-11-18T12:46:35;11.10;;;7.60;;
11111;SDS011;5609;49.466;8.468;2023-11-18T12:49:08;7.23;;;4.80;;
11111;SDS011;5609;49.466;8.468;2023-11-18T12:51:40;6.00;;;3.90;;
11111;SDS011;5609;49.466;8.468;2023-11-18T12:54:08;6.50;;;3.70;;
11111;SDS011;5609;49.466;8.468;2023-11-18T12:56:37;4.03;;;3.60;;
11111;SDS011;5609;49.466;8.468;2023-11-18T12:59:04;4.80;;;3.73;;
11111;SDS011;5609;49.466;8.468;2023-11-18T13:01:32;6.00;;;3.80;;
11111;SDS011;5609;49.466;8.468;2023-11-18T13:04:01;6.03;;;3.90;;
11111;SDS011;5609;49.466;8.468;2023-11-18T13:06:29;4.77;;;3.70;;
11111;SDS011;5609;49.466;8.468;2023-11-18T13:08:57;6.43;;;3.90;;
11111;SDS011;5609;49.466;8.468;2023-11-18T13:11:24;4.23;;;3.60;;
11111;SDS011;5609;49.466;8.468;2023-11-18T13:13:51;5.83;;;3.37;;
11111;SDS011;5609;49.466;8.468;2023-11-18T13:16:19;3.83;;;3.40;;
11111;SDS011;5609;49.466;8.468;2023-11-18T13:18:47;4.40;;;3.63;;
11111;SDS011;5609;49.466;8.468;2023-11-18T13:21:15;5.30;;;3.47;;
11111;SDS011;5609;49.466;8.468;2023-11-18T13:23:46;4.40;;;3.07;;
11111;SDS011;5609;49.466;8.468;2023-11-18T13:26:13;5.03;;;3.40;;
11111;SDS011;5609;49.466;8.468;2023-11-18T13:28:40;4.67;;;3.13;;
11111;SDS011;5609;49.466;8.468;2023-11-18T13:31:08;5.60;;;3.63;;
11111;SDS011;5609;49.466;8.468;2023-11-18T13:33:36;3.27;;;2.80;;
11111;SDS011;5609;49.466;8.468;2023-11-18T13:36:04;4.30;;;3.20;;
11111;SDS011;5609;49.466;8.468;2023-11-18T13:38:31;3.90;;;3.07;;
11111;SDS011;5609;49.466;8.468;2023-11-18T13:40:59;3.20;;;2.83;;
11111;SDS011;5609;49.466;8.468;2023-11-18T13:43:28;3.73;;;3.13;;
11111;SDS011;5609;49.466;8.468;2023-11-18T13:45:55;4.93;;;3.10;;
11111;SDS011;5609;49.466;8.468;2023-11-18T13:48:25;4.37;;;2.90;;
11111;SDS011;5609;49.466;8.468;2023-11-18T13:50:54;4.03;;;3.20;;
11111;SDS011;5609;49.466;8.468;2023-11-18T13:53:21;4.67;;;3.13;;
11111;SDS011;5609;49.466;8.468;2023-11-18T13:55:48;5.37;;;2.90;;
11111;SDS011;5609;49.466;8.468;2023-11-18T13:58:16;5.73;;;3.00;;
11111;SDS011;5609;49.466;8.468;2023-11-18T14:00:44;3.83;;;2.80;;
11111;SDS011;5609;49.466;8.468;2023-11-18T14:03:11;4.60;;;2.83;;
11111;SDS011;5609;49.466;8.468;2023-11-18T14:05:38;3.40;;;2.40;;
11111;SDS011;5609;49.466;8.468;2023-11-18T14:08:05;2.97;;;2.60;;
11111;SDS011;5609;49.466;8.468;2023-11-18T14:10:34;3.30;;;2.60;;
11111;SDS011;5609;49.466;8.468;2023-11-18T14:13:03;5.30;;;2.67;;
11111;SDS011;5609;49.466;8.468;2023-11-18T14:15:32;4.60;;;3.33;;
11111;SDS011;5609;49.466;8.468;2023-11-18T14:18:00;5.57;;;3.30;;
11111;SDS011;5609;49.466;8.468;2023-11-18T14:20:27;3.70;;;2.50;;
11111;SDS011;5609;49.466;8.468;2023-11-18T14:22:56;3.03;;;2.17;;
11111;SDS011;5609;49.466;8.468;2023-11-18T14:25:23;2.87;;;2.50;;
11111;SDS011;5609;49.466;8.468;2023-11-18T14:27:50;2.87;;;2.50;;
11111;SDS011;5609;49.466;8.468;2023-11-18T14:30:18;4.93;;;2.63;;
11111;SDS011;5609;49.466;8.468;2023-11-18T14:32:46;5.23;;;2.57;;
11111;SDS011;5609;49.466;8.468;2023-11-18T14:35:13;3.00;;;2.40;;
11111;SDS011;5609;49.466;8.468;2023-11-18T14:37:42;2.63;;;2.40;;
11111;SDS011;5609;49.466;8.468;2023-11-18T14:40:10;4.00;;;2.30;;
11111;SDS011;5609;49.466;8.468;2023-11-18T14:42:39;3.93;;;2.33;;
11111;SDS011;5609;49.466;8.468;2023-11-18T14:45:06;3.73;;;2.50;;
11111;SDS011;5609;49.466;8.468;2023-11-18T14:47:34;4.13;;;2.57;;
11111;SDS011;5609;49.466;8.468;2023-11-18T14:50:02;4.55;;;2.88;;
11111;SDS011;5609;49.466;8.468;2023-11-18T14:52:30;5.10;;;2.93;;
11111;SDS011;5609;49.466;8.468;2023-11-18T14:54:57;3.40;;;2.63;;
11111;SDS011;5609;49.466;8.468;2023-11-18T14:57:25;3.13;;;2.27;;
11111;SDS011;5609;49.466;8.468;2023-11-18T14:59:53;3.23;;;2.37;;
11111;SDS011;5609;49.466;8.468;2023-11-18T15:02:20;3.70;;;2.50;;
11111;SDS011;5609;49.466;8.468;2023-11-18T15:04:48;4.63;;;2.90;;
11111;SDS011;5609;49.466;8.468;2023-11-18T15:07:16;8.23;;;3.07;;
11111;SDS011;5609;49.466;8.468;2023-11-18T15:09:43;3.47;;;2.40;;
11111;SDS011;5609;49.466;8.468;2023-11-18T15:12:11;4.40;;;3.40;;